Pagrindinis puslapis
METAR-TAF:

METAR-TAF

Oro uostai :

Brunėjus, Brunėjus

platuma: 04-56N, ilguma: 114-56E, Aukštis: 22 m

Dabartinis oras

Ataskaita buvo paskelbta 22 minutes, ne 22:30 UTC
Vėjas 1 kt iš Pietų/Pietvakarių
Temperatūra 26°C
Drėgmė 89%
Slėgis 1011 hPa
Matomumas: 3000 m
Mažai debesys ne aukštis 1500 ft
Su prošvaistėmis ne aukštis 30000 ft
migla

METAR: WBSB 192230Z 20001KT 3000 HZ FEW015 BKN300 26/24 Q1011 NOSIG

Laikas: 06:52 (22:52 UTC)

Prognozė

Ataskaita buvo paskelbta 7 valandos ir 2 minutes, ne 15:50 UTC
Prognozė galioja nuo 19 metu 18 UTC su 21 metu 00 UTC
Vėjas 3 kt iš Rytų/Šiaurės Rytų
Matomumas: 3000 m
Mažai debesys ne aukštis 1500 ft
migla
Tapsmas
nuo 20 metu 04 UTC su 20 metu 06 UTC
Vėjas 8 kt iš Šiaurės
Mažai debesys ne aukštis 1600 ft

TAF: WBSB 191550Z 1918/2100 06003KT 3000 HZ FEW015 BECMG 2004/2006 35008KT FEW016

Orai ataskaitas ir orų prognozės (METAR, TAF).

turimą stotys yra geltonos ir raudonos taškus žemėlapyje.

Perkelti pele per norėdami pamatyti stoties vardą.

Tada spustelėkite, norėdami matyti oro stebėjimo ir prognozės.

Norėdami pakeisti žemėlapį: spustelėkite ant žalios mygtukų su juodo kryžiaus žemyn,; žalią mygtuką su brūkšneliu, jei norite nutolinti; arba žalių rodyklių gretimoms žemėlapius.


METAR-TAF: